Time;durP1;ratioP1;P1;durP2;ratioP2;P2;SDS_P1;SDS_P2;PMS_P1;PMS_P2;Temp;Humidity;BMP_temperature;BMP_pressure;BME280_temperature;BME280_humidity;BME280_pressure;Samples;Min_cycle;Max_cycle;Signal;HPM_P1;HPM_P2
2021/06/24 00:04:23;;;;;;;1999.90;999.90;;;24.40;73.00;;;;;;5029109;28;20019;-88
2021/06/24 00:06:49;;;;;;;1999.90;999.90;;;24.30;73.00;;;;;;5043454;28;20463;-87
2021/06/24 00:09:15;;;;;;;1999.90;999.90;;;24.30;73.00;;;;;;5025949;28;20033;-88
2021/06/24 00:11:41;;;;;;;1999.90;999.90;;;24.30;72.80;;;;;;5023460;28;20030;-88
2021/06/24 00:14:06;;;;;;;1999.90;999.90;;;24.20;72.60;;;;;;5027823;28;20025;-88
2021/06/24 00:16:32;;;;;;;1999.90;999.90;;;24.20;72.60;;;;;;5035152;28;20025;-89
2021/06/24 00:18:58;;;;;;;1999.90;999.90;;;24.20;72.40;;;;;;5032168;28;20047;-88
2021/06/24 00:21:24;;;;;;;1999.90;999.90;;;24.20;72.50;;;;;;5037188;28;20029;-88
2021/06/24 00:23:50;;;;;;;1999.90;999.90;;;24.10;72.30;;;;;;5033089;28;20075;-89
2021/06/24 00:26:16;;;;;;;1999.90;999.90;;;24.10;72.20;;;;;;5028899;28;20040;-88
2021/06/24 00:28:42;;;;;;;1999.90;999.90;;;24.10;72.20;;;;;;5029718;28;20040;-87
2021/06/24 00:31:07;;;;;;;1999.90;999.90;;;24.10;72.20;;;;;;5033759;28;20098;-87
2021/06/24 00:33:33;;;;;;;1999.90;999.90;;;24.10;72.00;;;;;;5032374;28;20041;-86
2021/06/24 00:35:59;;;;;;;1999.90;999.90;;;24.10;72.00;;;;;;5025993;28;20071;-87
2021/06/24 00:38:25;;;;;;;1999.90;999.90;;;24.00;72.50;;;;;;5031267;28;20033;-87
2021/06/24 00:40:51;;;;;;;1999.90;999.90;;;24.00;71.80;;;;;;5033532;28;20026;-87
2021/06/24 00:43:19;;;;;;;1999.90;999.90;;;24.00;71.70;;;;;;5033627;28;20040;-86
2021/06/24 00:45:46;;;;;;;1999.90;999.90;;;23.90;71.80;;;;;;5026089;28;20394;-87
2021/06/24 00:48:13;;;;;;;1999.90;999.90;;;23.90;71.70;;;;;;5040337;28;20053;-87
2021/06/24 00:50:43;;;;;;;1999.90;999.90;;;23.90;71.60;;;;;;5035756;28;20048;-86
2021/06/24 00:53:10;;;;;;;1999.90;999.90;;;23.90;71.60;;;;;;5046178;28;20509;-86
2021/06/24 00:55:45;;;;;;;1999.90;999.90;;;23.80;72.10;;;;;;5028384;28;20030;-86
2021/06/24 00:58:17;;;;;;;1999.90;999.90;;;23.80;71.50;;;;;;5025183;28;20526;-87
2021/06/24 01:00:44;;;;;;;1999.90;999.90;;;23.80;71.50;;;;;;5031601;28;20119;-87
2021/06/24 01:03:12;;;;;;;1999.90;999.90;;;23.80;71.50;;;;;;5025037;28;20017;-87
2021/06/24 01:05:38;;;;;;;1999.90;999.90;;;23.70;71.50;;;;;;5027016;28;20021;-88
2021/06/24 01:08:06;;;;;;;1999.90;999.90;;;23.70;71.50;;;;;;5025295;28;20041;-87
2021/06/24 01:10:32;;;;;;;1999.90;999.90;;;23.60;71.50;;;;;;5027873;28;20087;-88
2021/06/24 01:12:59;;;;;;;1999.90;999.90;;;23.60;71.60;;;;;;5032808;28;20119;-89
2021/06/24 01:15:25;;;;;;;1999.90;999.90;;;23.60;71.70;;;;;;5027399;28;20541;-86
2021/06/24 01:17:50;;;;;;;1999.90;999.90;;;23.60;71.80;;;;;;5032265;28;20021;-86
2021/06/24 01:20:25;;;;;;;1999.90;999.90;;;23.50;71.70;;;;;;5022726;28;20462;-87
2021/06/24 01:22:51;;;;;;;1999.90;999.90;;;23.50;71.90;;;;;;5032330;28;20063;-87
2021/06/24 01:25:18;;;;;;;1999.90;999.90;;;23.50;71.90;;;;;;5029769;28;20121;-87
2021/06/24 01:27:44;;;;;;;1999.90;999.90;;;23.50;72.00;;;;;;5031609;28;20411;-87
2021/06/24 01:30:10;;;;;;;1999.90;999.90;;;23.40;72.10;;;;;;5028444;28;20052;-87
2021/06/24 01:32:36;;;;;;;1999.90;999.90;;;23.40;72.30;;;;;;5031565;28;20048;-87
2021/06/24 01:35:03;;;;;;;1999.90;999.90;;;23.30;72.30;;;;;;5032078;28;20025;-87
2021/06/24 01:37:28;;;;;;;1999.90;999.90;;;23.30;72.40;;;;;;5017632;28;20087;-87
2021/06/24 01:39:54;;;;;;;1999.90;999.90;;;23.30;72.50;;;;;;5033688;28;20025;-88
2021/06/24 01:42:20;;;;;;;1999.90;999.90;;;23.30;72.60;;;;;;5030567;28;20075;-87
2021/06/24 01:44:46;;;;;;;1999.90;999.90;;;23.30;72.60;;;;;;5032528;28;20022;-87
2021/06/24 01:47:12;;;;;;;1999.90;999.90;;;23.20;72.70;;;;;;5038133;28;20022;-87
2021/06/24 01:49:39;;;;;;;1999.90;999.90;;;23.20;72.80;;;;;;5031317;28;20036;-87
2021/06/24 01:52:05;;;;;;;1999.90;999.90;;;23.20;73.00;;;;;;5032055;28;20073;-89
2021/06/24 01:54:31;;;;;;;1999.90;999.90;;;23.20;73.00;;;;;;5027507;28;20062;-88
2021/06/24 01:56:57;;;;;;;1999.90;999.90;;;23.20;73.20;;;;;;5028369;28;20052;-88
2021/06/24 01:59:22;;;;;;;1999.90;999.90;;;23.20;73.30;;;;;;5033069;28;20117;-86
2021/06/24 02:01:48;;;;;;;1999.90;999.90;;;23.20;73.30;;;;;;5022480;28;20029;-84
2021/06/24 02:04:14;;;;;;;1999.90;999.90;;;23.20;73.50;;;;;;5030044;28;20029;-84
2021/06/24 02:06:40;;;;;;;1999.90;999.90;;;23.20;73.50;;;;;;5030590;28;20375;-84
2021/06/24 02:09:06;;;;;;;1999.90;999.90;;;23.20;73.50;;;;;;5031044;28;20475;-84
2021/06/24 02:11:33;;;;;;;1999.90;999.90;;;23.30;73.60;;;;;;5025334;28;20049;-85
2021/06/24 02:13:58;;;;;;;1999.90;999.90;;;23.30;73.50;;;;;;5029625;28;20036;-85
2021/06/24 02:16:24;;;;;;;1999.90;999.90;;;23.30;73.30;;;;;;5029667;28;20026;-84
2021/06/24 02:18:50;;;;;;;1999.90;999.90;;;23.40;73.40;;;;;;5030872;28;20082;-86
2021/06/24 02:21:16;;;;;;;1999.90;999.90;;;23.40;73.40;;;;;;5029725;28;20029;-86
2021/06/24 02:23:42;;;;;;;1999.90;999.90;;;23.50;73.40;;;;;;5031858;28;20482;-86
2021/06/24 02:26:08;;;;;;;1999.90;999.90;;;23.50;73.10;;;;;;5031760;28;20117;-86
2021/06/24 02:28:33;;;;;;;1999.90;999.90;;;23.50;73.10;;;;;;5029280;28;20121;-86
2021/06/24 02:30:59;;;;;;;1999.90;999.90;;;23.60;73.20;;;;;;5028507;28;20487;-86
2021/06/24 02:33:27;;;;;;;1999.90;999.90;;;23.60;73.10;;;;;;5025039;28;20041;-84
2021/06/24 02:35:58;;;;;;;1999.90;999.90;;;23.60;73.10;;;;;;5026004;28;20029;-84
2021/06/24 02:38:24;;;;;;;1999.90;999.90;;;23.60;72.90;;;;;;5024957;28;20037;-84
2021/06/24 02:40:52;;;;;;;1999.90;999.90;;;23.70;72.90;;;;;;5033718;28;20052;-84
2021/06/24 02:43:17;;;;;;;1999.90;999.90;;;23.70;72.80;;;;;;5033795;28;20055;-84
2021/06/24 02:45:44;;;;;;;1999.90;999.90;;;23.80;72.60;;;;;;5020937;28;21813;-84
2021/06/24 02:48:10;;;;;;;1999.90;999.90;;;23.80;72.30;;;;;;5032558;28;20033;-84
2021/06/24 02:50:36;;;;;;;1999.90;999.90;;;23.90;72.10;;;;;;5030911;28;20022;-86
2021/06/24 02:53:02;;;;;;;1999.90;999.90;;;24.00;72.20;;;;;;5030110;28;20030;-86
2021/06/24 02:55:30;;;;;;;1999.90;999.90;;;24.00;72.60;;;;;;5035777;28;20091;-85
2021/06/24 02:57:58;;;;;;;1999.90;999.90;;;24.10;71.70;;;;;;5020409;28;20068;-83
2021/06/24 03:00:24;;;;;;;1999.90;999.90;;;24.10;71.60;;;;;;5032244;28;20045;-84
2021/06/24 03:02:52;;;;;;;1999.90;999.90;;;24.20;71.60;;;;;;5030837;28;20072;-84
2021/06/24 03:05:19;;;;;;;1999.90;999.90;;;24.20;71.50;;;;;;5027294;28;20112;-84
2021/06/24 03:07:45;;;;;;;1999.90;999.90;;;24.30;71.40;;;;;;5042647;28;20033;-83
2021/06/24 03:10:12;;;;;;;1999.90;999.90;;;24.30;71.40;;;;;;5025454;28;20030;-84
2021/06/24 03:12:40;;;;;;;1999.90;999.90;;;24.40;71.40;;;;;;5045130;28;20100;-84
2021/06/24 03:15:07;;;;;;;1999.90;999.90;;;24.40;71.30;;;;;;5030685;28;20091;-83
2021/06/24 03:17:36;;;;;;;1999.90;999.90;;;24.50;71.40;;;;;;5029108;28;20116;-84
2021/06/24 03:20:10;;;;;;;1999.90;999.90;;;24.50;71.40;;;;;;5026646;28;20063;-85
2021/06/24 03:22:36;;;;;;;1999.90;999.90;;;24.60;71.20;;;;;;5033714;28;20040;-86
2021/06/24 03:25:07;;;;;;;1999.90;999.90;;;24.60;71.10;;;;;;5029127;28;20018;-85
2021/06/24 03:27:33;;;;;;;1999.90;999.90;;;24.70;70.80;;;;;;5030140;28;20481;-85
2021/06/24 03:30:00;;;;;;;1999.90;999.90;;;24.70;70.90;;;;;;5026254;28;20021;-86
2021/06/24 03:32:25;;;;;;;1999.90;999.90;;;24.80;70.80;;;;;;5033519;28;20029;-85
2021/06/24 03:34:51;;;;;;;1999.90;999.90;;;24.80;70.80;;;;;;5025089;28;20017;-84
2021/06/24 03:37:17;;;;;;;1999.90;999.90;;;24.90;70.70;;;;;;5025339;28;20036;-83
2021/06/24 03:39:46;;;;;;;1999.90;999.90;;;25.00;70.60;;;;;;5031657;28;20082;-85
2021/06/24 03:42:11;;;;;;;1999.90;999.90;;;25.00;70.70;;;;;;5033151;28;20025;-85
2021/06/24 03:44:37;;;;;;;1999.90;999.90;;;25.00;70.80;;;;;;5027551;28;20647;-84
2021/06/24 03:47:03;;;;;;;1999.90;999.90;;;25.00;70.90;;;;;;5014709;28;20565;-83
2021/06/24 03:49:29;;;;;;;1999.90;999.90;;;25.10;71.20;;;;;;5031638;28;20391;-83
2021/06/24 03:51:55;;;;;;;1999.90;999.90;;;25.10;71.50;;;;;;5028306;28;20034;-84
2021/06/24 03:54:20;;;;;;;1999.90;999.90;;;25.20;71.60;;;;;;5033011;28;20037;-84
2021/06/24 03:56:46;;;;;;;1999.90;999.90;;;25.20;71.70;;;;;;5032417;28;20355;-83
2021/06/24 03:59:12;;;;;;;1999.90;999.90;;;25.20;71.70;;;;;;5027709;28;20479;-84
2021/06/24 04:01:42;;;;;;;1999.90;999.90;;;25.30;71.80;;;;;;5028867;28;20470;-84
2021/06/24 04:04:12;;;;;;;1999.90;999.90;;;25.30;71.90;;;;;;5025976;28;20033;-84
2021/06/24 04:06:38;;;;;;;1999.90;999.90;;;25.30;72.10;;;;;;5032291;28;20017;-83
2021/06/24 04:09:07;;;;;;;1999.90;999.90;;;25.40;72.20;;;;;;5031062;28;20033;-84
2021/06/24 04:11:35;;;;;;;1999.90;999.90;;;25.40;72.10;;;;;;5025928;28;20567;-83
2021/06/24 04:14:01;;;;;;;1999.90;999.90;;;25.50;72.00;;;;;;5019895;28;20036;-83
2021/06/24 04:16:27;;;;;;;1999.90;999.90;;;25.50;72.60;;;;;;5041786;28;20021;-85
2021/06/24 04:18:53;;;;;;;1999.90;999.90;;;25.40;71.70;;;;;;5029751;28;20021;-84
2021/06/24 04:21:19;;;;;;;1999.90;999.90;;;25.40;71.90;;;;;;5032333;28;20053;-84
2021/06/24 04:23:44;;;;;;;1999.90;999.90;;;25.50;71.60;;;;;;5032836;28;20021;-85
2021/06/24 04:26:10;;;;;;;1999.90;999.90;;;25.50;71.40;;;;;;5030154;28;20091;-83
2021/06/24 04:28:39;;;;;;;1999.90;999.90;;;25.50;70.80;;;;;;5030659;28;20057;-84
2021/06/24 04:31:06;;;;;;;1999.90;999.90;;;25.60;70.80;;;;;;5024803;28;20033;-83
2021/06/24 04:33:33;;;;;;;1999.90;999.90;;;25.60;70.60;;;;;;5031244;28;20570;-84
2021/06/24 04:35:59;;;;;;;1999.90;999.90;;;25.70;70.40;;;;;;5032375;28;20030;-84
2021/06/24 04:38:25;;;;;;;1999.90;999.90;;;25.70;70.00;;;;;;5027007;28;20026;-85
2021/06/24 04:40:50;;;;;;;1999.90;999.90;;;25.80;69.70;;;;;;5032266;28;20029;-85
2021/06/24 04:43:16;;;;;;;1999.90;999.90;;;25.80;69.80;;;;;;5025246;28;20026;-87
2021/06/24 04:45:42;;;;;;;1999.90;999.90;;;25.90;68.90;;;;;;5016541;28;20035;-85
2021/06/24 04:48:08;;;;;;;1999.90;999.90;;;25.90;68.70;;;;;;5019016;28;20032;-84
2021/06/24 04:50:36;;;;;;;1999.90;999.90;;;26.00;68.40;;;;;;5041808;28;20091;-87
2021/06/24 04:53:02;;;;;;;1999.90;999.90;;;26.00;68.30;;;;;;5028549;28;20025;-87
2021/06/24 04:55:38;;;;;;;1999.90;999.90;;;26.10;68.10;;;;;;5019071;28;20038;-86
2021/06/24 04:58:07;;;;;;;1999.90;999.90;;;26.10;67.60;;;;;;5024173;28;20087;-87
2021/06/24 05:00:34;;;;;;;1999.90;999.90;;;26.20;67.60;;;;;;5025912;28;20041;-86
2021/06/24 05:03:01;;;;;;;1999.90;999.90;;;26.30;67.20;;;;;;5028108;28;20029;-84
2021/06/24 05:05:27;;;;;;;1999.90;999.90;;;26.40;66.90;;;;;;5029818;28;20033;-89
2021/06/24 05:07:53;;;;;;;1999.90;999.90;;;26.50;66.70;;;;;;5017430;28;20033;-88
2021/06/24 05:10:19;;;;;;;1999.90;999.90;;;26.50;66.40;;;;;;5019919;28;20064;-87
2021/06/24 05:12:44;;;;;;;1999.90;999.90;;;26.60;65.90;;;;;;5019590;28;20049;-85
2021/06/24 05:15:11;;;;;;;1999.90;999.90;;;26.60;65.40;;;;;;5024404;28;20079;-85
2021/06/24 05:17:45;;;;;;;1999.90;999.90;;;26.70;65.20;;;;;;5037385;28;20120;-84
2021/06/24 05:20:11;;;;;;;1999.90;999.90;;;26.80;65.30;;;;;;5029853;28;20033;-84
2021/06/24 05:22:37;;;;;;;1999.90;999.90;;;26.80;65.10;;;;;;5033954;28;20048;-84
2021/06/24 05:25:06;;;;;;;1999.90;999.90;;;26.90;65.00;;;;;;5034529;28;20061;-84
2021/06/24 05:27:32;;;;;;;1999.90;999.90;;;27.00;64.60;;;;;;5028748;28;20686;-84
2021/06/24 05:29:58;;;;;;;1999.90;999.90;;;27.00;64.30;;;;;;5019596;28;20118;-85
2021/06/24 05:32:23;;;;;;;1999.90;999.90;;;27.10;63.80;;;;;;5020391;28;20047;-85
2021/06/24 05:34:49;;;;;;;1999.90;999.90;;;27.10;63.80;;;;;;5017455;28;20029;-86
2021/06/24 05:37:14;;;;;;;1999.90;999.90;;;27.10;63.90;;;;;;5021641;28;20038;-86
2021/06/24 05:39:40;;;;;;;1999.90;999.90;;;27.20;64.00;;;;;;5015678;28;20037;-86
2021/06/24 05:42:06;;;;;;;1999.90;999.90;;;27.30;64.00;;;;;;5025777;28;20029;-88
2021/06/24 05:44:34;;;;;;;1999.90;999.90;;;27.40;63.40;;;;;;5028984;28;20080;-89
2021/06/24 05:47:03;;;;;;;1999.90;999.90;;;27.40;63.20;;;;;;5025462;28;20030;-88
2021/06/24 05:49:34;;;;;;;1999.90;999.90;;;27.50;63.30;;;;;;5025520;28;20104;-92
2021/06/24 05:52:01;;;;;;;1999.90;999.90;;;27.60;63.30;;;;;;5021712;28;20116;-91
2021/06/24 05:54:27;;;;;;;1999.90;999.90;;;27.60;62.60;;;;;;5024132;28;20104;-90
2021/06/24 05:56:52;;;;;;;1999.90;999.90;;;27.70;62.90;;;;;;5025134;28;20079;-89
2021/06/24 05:59:24;;;;;;;1999.90;999.90;;;27.80;62.80;;;;;;5028046;28;20041;-89
2021/06/24 06:01:51;;;;;;;1999.90;999.90;;;27.80;62.50;;;;;;5010382;28;20060;-87
2021/06/24 06:04:17;;;;;;;1999.90;999.90;;;27.90;62.50;;;;;;5030796;28;20931;-90
2021/06/24 06:06:43;;;;;;;1999.90;999.90;;;27.80;62.40;;;;;;5019508;28;20037;-87
2021/06/24 06:09:12;;;;;;;1999.90;999.90;;;27.70;62.70;;;;;;5013732;28;20057;-86
2021/06/24 06:11:38;;;;;;;1999.90;999.90;;;27.70;62.80;;;;;;5003692;28;20395;-85
2021/06/24 06:14:04;;;;;;;1999.90;999.90;;;27.80;63.20;;;;;;4998371;28;20044;-86
2021/06/24 06:16:48;;;;;;;1999.90;999.90;;;27.80;62.90;;;;;;5003936;28;20120;-90
2021/06/24 06:19:14;;;;;;;1999.90;999.90;;;27.90;62.70;;;;;;5003349;28;20028;-88
2021/06/24 06:21:42;;;;;;;1999.90;999.90;;;28.10;62.80;;;;;;4994279;28;20514;-86
2021/06/24 06:24:08;;;;;;;1999.90;999.90;;;28.20;62.80;;;;;;4994544;28;20087;-85
2021/06/24 06:26:34;;;;;;;1999.90;999.90;;;28.30;62.40;;;;;;5008165;28;20041;-84
2021/06/24 06:29:03;;;;;;;1999.90;999.90;;;28.50;62.30;;;;;;4999100;28;21041;-86
2021/06/24 06:31:37;;;;;;;1999.90;999.90;;;28.60;62.20;;;;;;5006433;28;20044;-88
2021/06/24 06:34:03;;;;;;;1999.90;999.90;;;28.60;62.20;;;;;;5004196;28;20037;-86
2021/06/24 06:36:32;;;;;;;1999.90;999.90;;;28.70;61.90;;;;;;5005422;28;20038;-85
2021/06/24 06:39:01;;;;;;;1999.90;999.90;;;28.70;61.90;;;;;;4998043;28;20043;-86
2021/06/24 06:41:42;;;;;;;1999.90;999.90;;;28.80;62.00;;;;;;5004327;28;20091;-86
2021/06/24 06:44:08;;;;;;;1999.90;999.90;;;28.80;62.10;;;;;;5000819;28;20087;-86
2021/06/24 06:46:34;;;;;;;1999.90;999.90;;;28.90;61.80;;;;;;5001836;28;20921;-85
2021/06/24 06:49:00;;;;;;;1999.90;999.90;;;29.00;61.80;;;;;;5008825;28;20311;-85
2021/06/24 06:51:26;;;;;;;1999.90;999.90;;;29.10;61.60;;;;;;5001185;28;20120;-86
2021/06/24 06:53:58;;;;;;;1999.90;999.90;;;29.10;61.60;;;;;;5011613;28;20145;-84
2021/06/24 06:56:48;;;;;;;1999.90;999.90;;;29.20;61.40;;;;;;5006133;28;20722;-86
2021/06/24 06:59:14;;;;;;;1999.90;999.90;;;29.20;61.00;;;;;;5021139;28;20151;-86
2021/06/24 07:01:40;;;;;;;1999.90;999.90;;;29.20;61.30;;;;;;5005301;28;20207;-85
2021/06/24 07:04:07;;;;;;;1999.90;999.90;;;29.20;61.10;;;;;;5008868;28;20025;-87
2021/06/24 07:06:33;;;;;;;1999.90;999.90;;;29.30;61.30;;;;;;4999724;28;20041;-86
2021/06/24 07:08:59;;;;;;;1999.90;999.90;;;29.40;61.50;;;;;;4991206;28;20033;-86
2021/06/24 07:11:35;;;;;;;1999.90;999.90;;;29.50;60.90;;;;;;4997176;28;20061;-87
2021/06/24 07:14:01;;;;;;;1999.90;999.90;;;29.60;60.50;;;;;;4993029;28;20081;-88
2021/06/24 07:17:31;;;;;;;;;;;;;;;;;;;;;
2021/06/24 07:20:35;;;;;;;;;;;;;;;;;;;;;
2021/06/24 07:27:25;;;;;;;1999.90;999.90;;;30.10;59.40;;;;;;4984154;28;20088;-86
2021/06/24 07:29:53;;;;;;;1999.90;999.90;;;30.20;59.60;;;;;;4981988;28;20034;-88
2021/06/24 07:33:04;;;;;;;;;;;;;;;;;;;;;
2021/06/24 07:35:35;;;;;;;1999.90;999.90;;;30.30;59.30;;;;;;5000311;28;20037;-88
2021/06/24 07:38:04;;;;;;;1999.90;999.90;;;30.40;59.40;;;;;;4991430;28;20487;-85
2021/06/24 07:40:33;;;;;;;1999.90;999.90;;;30.40;59.20;;;;;;4986671;28;20022;-85
2021/06/24 07:42:59;;;;;;;1999.90;999.90;;;30.50;59.30;;;;;;4992675;28;20033;-87
2021/06/24 07:45:52;;;;;;;1999.90;999.90;;;30.60;59.30;;;;;;4989571;28;20037;-85
2021/06/24 07:48:18;;;;;;;1999.90;999.90;;;30.80;58.20;;;;;;4994708;28;22548;-84
2021/06/24 07:50:59;;;;;;;1999.90;999.90;;;30.80;58.50;;;;;;4999683;28;20087;-85
2021/06/24 07:53:25;;;;;;;1999.90;999.90;;;30.90;58.30;;;;;;5000776;28;29956;-84
2021/06/24 07:56:08;;;;;;;1999.90;999.90;;;30.90;58.40;;;;;;5003024;28;20087;-85
2021/06/24 07:58:54;;;;;;;;;;;;;;;;;;;;;
2021/06/24 08:04:24;;;;;;;1999.90;999.90;;;31.20;57.90;;;;;;4995558;28;20038;-83
2021/06/24 08:06:56;;;;;;;1999.90;999.90;;;31.20;57.60;;;;;;4989452;28;20033;-83
2021/06/24 08:09:30;;;;;;;1999.90;999.90;;;31.30;57.60;;;;;;4994122;28;20068;-84
2021/06/24 08:11:57;;;;;;;1999.90;999.90;;;31.40;57.20;;;;;;4988292;28;29978;-84
2021/06/24 08:14:29;;;;;;;1999.90;999.90;;;31.40;56.90;;;;;;4990475;28;20533;-85
2021/06/24 08:17:20;;;;;;;1999.90;999.90;;;31.40;57.10;;;;;;5003450;28;20097;-86
2021/06/24 08:22:41;;;;;;;1999.90;999.90;;;31.60;55.50;;;;;;4996097;28;20048;-87
2021/06/24 08:25:10;;;;;;;1999.90;999.90;;;31.60;56.00;;;;;;4992489;28;20491;-85
2021/06/24 08:27:39;;;;;;;1999.90;999.90;;;31.60;56.00;;;;;;4985856;28;20753;-85
2021/06/24 08:30:10;;;;;;;1999.90;999.90;;;31.60;56.10;;;;;;5013319;28;20047;-86
2021/06/24 08:32:37;;;;;;;1999.90;999.90;;;31.60;56.20;;;;;;4996896;28;20029;-84
2021/06/24 08:35:05;;;;;;;1999.90;999.90;;;31.70;56.40;;;;;;5002893;28;20041;-85
2021/06/24 08:37:55;;;;;;;1999.90;999.90;;;31.80;56.50;;;;;;4992729;28;20040;-85
2021/06/24 08:40:22;;;;;;;1999.90;999.90;;;31.90;55.30;;;;;;4994756;28;20116;-84
2021/06/24 08:42:53;;;;;;;1999.90;999.90;;;31.90;55.70;;;;;;4989255;28;20466;-84
2021/06/24 08:45:22;;;;;;;1999.90;999.90;;;32.00;55.90;;;;;;4999174;28;20029;-85
2021/06/24 08:47:51;;;;;;;1999.90;999.90;;;32.10;56.00;;;;;;4997505;28;20479;-85
2021/06/24 08:50:18;;;;;;;1999.90;999.90;;;32.20;56.10;;;;;;4987306;28;20387;-86
2021/06/24 08:52:48;;;;;;;1999.90;999.90;;;32.40;56.10;;;;;;4991008;28;20025;-86
2021/06/24 08:55:18;;;;;;;1999.90;999.90;;;32.50;55.80;;;;;;4994788;28;20876;-85
2021/06/24 08:57:44;;;;;;;1999.90;999.90;;;32.60;55.20;;;;;;5000510;28;20116;-85
2021/06/24 09:00:10;;;;;;;1999.90;999.90;;;32.80;55.20;;;;;;5002520;28;20052;-85
2021/06/24 09:02:46;;;;;;;1999.90;999.90;;;32.80;54.70;;;;;;4992587;28;20082;-85
2021/06/24 09:05:15;;;;;;;1999.90;999.90;;;32.80;53.90;;;;;;5007791;28;20037;-85
2021/06/24 09:07:55;;;;;;;1999.90;999.90;;;32.90;54.10;;;;;;5021738;28;20079;-85
2021/06/24 09:10:23;;;;;;;1999.90;999.90;;;33.00;53.80;;;;;;4998202;28;20039;-85
2021/06/24 09:13:04;;;;;;;1999.90;999.90;;;33.00;53.90;;;;;;5002049;28;20029;-86
2021/06/24 09:15:55;;;;;;;1999.90;999.90;;;33.10;53.90;;;;;;5001386;28;20498;-86
2021/06/24 09:18:22;;;;;;;1999.90;999.90;;;33.20;51.70;;;;;;5003489;28;20097;-86
2021/06/24 09:20:48;;;;;;;1999.90;999.90;;;33.30;53.50;;;;;;5011685;28;20029;-86
2021/06/24 09:23:25;;;;;;;1999.90;999.90;;;33.30;53.40;;;;;;5000528;28;20041;-85
2021/06/24 09:26:13;;;;;;;1999.90;999.90;;;33.40;52.90;;;;;;5000452;28;20029;-84
2021/06/24 09:28:55;;;;;;;1999.90;999.90;;;33.50;53.40;;;;;;5000496;28;20048;-87
2021/06/24 09:31:28;;;;;;;;;;;33.60;52.80;;;;;;5004535;28;20880;-87
2021/06/24 09:33:56;;;;;;;1999.90;999.90;;;33.60;53.20;;;;;;4996341;28;19975;-85
2021/06/24 09:36:36;;;;;;;1999.90;999.90;;;33.70;53.10;;;;;;4996238;28;20037;-85
2021/06/24 09:39:08;;;;;;;1999.90;999.90;;;33.80;52.20;;;;;;5005950;28;20124;-84
2021/06/24 09:41:34;;;;;;;;;;;33.80;53.10;;;;;;5004699;28;20030;-85
2021/06/24 09:44:17;;;;;;;1999.90;999.90;;;33.80;53.10;;;;;;5005041;28;19999;-86
2021/06/24 09:46:43;;;;;;;1999.90;999.90;;;33.90;52.80;;;;;;5002866;28;20030;-85
2021/06/24 09:49:09;;;;;;;1999.90;999.90;;;33.90;52.70;;;;;;5021595;28;20029;-85
2021/06/24 09:51:39;;;;;;;1999.90;999.90;;;33.90;53.20;;;;;;5001851;28;20033;-85
2021/06/24 09:54:12;;;;;;;1999.90;999.90;;;34.00;53.00;;;;;;4998952;28;20033;-85
2021/06/24 09:56:44;;;;;;;1999.90;999.90;;;34.10;52.80;;;;;;5009503;28;22270;-85
2021/06/24 10:02:13;;;;;;;1999.90;999.90;;;34.20;52.50;;;;;;5011070;28;20084;-86
2021/06/24 10:04:43;;;;;;;1999.90;999.90;;;34.20;52.00;;;;;;5010585;28;20033;-85
2021/06/24 10:07:21;;;;;;;1999.90;999.90;;;34.20;52.40;;;;;;5012392;28;20029;-84
2021/06/24 10:09:51;;;;;;;1999.90;999.90;;;34.20;52.30;;;;;;5006513;28;20029;-85
2021/06/24 10:12:47;;;;;;;1999.90;999.90;;;34.30;52.70;;;;;;5004092;28;20064;-87
2021/06/24 10:15:16;;;;;;;1999.90;999.90;;;34.40;52.20;;;;;;5009164;28;20062;-87
2021/06/24 10:17:43;;;;;;;1999.90;999.90;;;34.40;52.10;;;;;;5004887;28;20030;-88
2021/06/24 10:20:10;;;;;;;1999.90;999.90;;;34.40;52.10;;;;;;5009200;28;20013;-85
2021/06/24 10:22:41;;;;;;;1999.90;999.90;;;34.50;52.10;;;;;;5003775;28;20601;-85
2021/06/24 10:25:13;;;;;;;1999.90;999.90;;;34.50;51.90;;;;;;5007916;28;20030;-86
2021/06/24 10:27:42;;;;;;;1999.90;999.90;;;34.50;52.00;;;;;;5010728;28;20729;-85
2021/06/24 10:30:21;;;;;;;1999.90;999.90;;;34.50;52.10;;;;;;5006025;28;20030;-85
2021/06/24 10:33:01;;;;;;;1999.90;999.90;;;34.50;52.40;;;;;;5008700;28;20550;-86
2021/06/24 10:35:29;;;;;;;1999.90;999.90;;;34.60;52.40;;;;;;5000686;28;20466;-86
2021/06/24 10:38:00;;;;;;;1999.90;999.90;;;34.60;52.90;;;;;;5006284;28;20029;-87
2021/06/24 10:40:26;;;;;;;1999.90;999.90;;;34.70;52.90;;;;;;5018744;28;20159;-86
2021/06/24 10:42:58;;;;;;;1999.90;999.90;;;34.80;52.70;;;;;;5005178;28;20034;-87
2021/06/24 10:45:24;;;;;;;;;;;35.00;52.30;;;;;;5005866;28;20524;-86
2021/06/24 10:47:50;;;;;;;1999.90;999.90;;;35.00;52.20;;;;;;5009940;28;20043;-84
2021/06/24 10:53:06;;;;;;;1999.90;999.90;;;35.10;51.60;;;;;;5016243;28;20038;-83
2021/06/24 10:55:34;;;;;;;1999.90;999.90;;;35.20;50.60;;;;;;5010958;28;20806;-83
2021/06/24 10:58:12;;;;;;;1999.90;999.90;;;35.10;49.80;;;;;;5013849;28;20091;-84
2021/06/24 11:00:46;;;;;;;1999.90;999.90;;;35.10;50.00;;;;;;5017043;28;20549;-84
2021/06/24 11:03:46;;;;;;;1999.90;999.90;;;35.20;50.50;;;;;;5011580;28;20121;-83
2021/06/24 11:06:14;;;;;;;1999.90;999.90;;;35.20;49.90;;;;;;5031672;28;20458;-83
2021/06/24 11:08:41;;;;;;;1999.90;999.90;;;35.20;50.10;;;;;;5023923;28;20033;-82
2021/06/24 11:11:09;;;;;;;1999.90;999.90;;;35.30;49.70;;;;;;5034896;28;20049;-83
2021/06/24 11:13:46;;;;;;;1999.90;999.90;;;35.40;50.00;;;;;;5013261;28;20029;-81
2021/06/24 11:16:20;;;;;;;1999.90;999.90;;;35.40;50.00;;;;;;5011017;28;20025;-82
2021/06/24 11:18:55;;;;;;;1999.90;999.90;;;35.50;50.30;;;;;;5015292;28;20030;-82
2021/06/24 11:21:33;;;;;;;1999.90;999.90;;;35.70;50.30;;;;;;5022674;28;20360;-85
2021/06/24 11:24:08;;;;;;;1999.90;999.90;;;35.70;50.00;;;;;;5015526;28;20079;-86
2021/06/24 11:26:41;;;;;;;1999.90;999.90;;;35.70;50.00;;;;;;5022137;28;20049;-84
2021/06/24 11:32:09;;;;;;;1999.90;999.90;;;35.70;49.20;;;;;;5025052;28;20038;-85
2021/06/24 11:34:57;;;;;;;1999.90;999.90;;;35.70;49.20;;;;;;5018123;28;20025;-85
2021/06/24 11:37:29;;;;;;;1999.90;999.90;;;35.70;48.60;;;;;;5033296;28;20129;-84
2021/06/24 11:40:07;;;;;;;1999.90;999.90;;;35.70;48.50;;;;;;5020587;28;20512;-84
2021/06/24 11:42:42;;;;;;;1999.90;999.90;;;35.70;48.50;;;;;;5018830;28;20033;-84
2021/06/24 11:45:11;;;;;;;1999.90;999.90;;;35.70;48.70;;;;;;5016072;28;20133;-84
2021/06/24 11:47:38;;;;;;;1999.90;999.90;;;35.70;48.20;;;;;;5016042;28;20452;-84
2021/06/24 12:04:17;;;;;;;1999.90;999.90;;;35.60;48.90;;;;;;5010915;28;20025;-84
2021/06/24 12:06:56;;;;;;;1999.90;999.90;;;35.70;49.20;;;;;;5007089;28;20037;-84
2021/06/24 12:09:26;;;;;;;1999.90;999.90;;;35.70;49.60;;;;;;5026616;28;20052;-84
2021/06/24 12:11:55;;;;;;;1999.90;999.90;;;35.70;50.10;;;;;;5021503;28;20052;-84
2021/06/24 12:14:28;;;;;;;1999.90;999.90;;;35.80;49.00;;;;;;5014926;28;20037;-85
2021/06/24 12:17:14;;;;;;;1999.90;999.90;;;35.80;49.00;;;;;;5020213;28;20249;-84
2021/06/24 12:19:44;;;;;;;1999.90;999.90;;;35.80;48.40;;;;;;5016177;28;20026;-85
2021/06/24 12:22:10;;;;;;;1999.90;999.90;;;35.90;48.70;;;;;;5009980;28;20043;-84
2021/06/24 12:24:59;;;;;;;1999.90;999.90;;;36.00;48.60;;;;;;5015793;28;20021;-84
2021/06/24 12:27:37;;;;;;;1999.90;999.90;;;36.10;48.50;;;;;;5028932;28;20414;-84
2021/06/24 12:30:16;;;;;;;1999.90;999.90;;;36.30;49.40;;;;;;5014274;28;20029;-82
2021/06/24 12:32:54;;;;;;;1999.90;999.90;;;36.70;48.30;;;;;;5017948;28;20026;-82
2021/06/24 12:35:26;;;;;;;1999.90;999.90;;;37.20;48.20;;;;;;5019780;28;20678;-82
2021/06/24 12:37:53;;;;;;;1999.90;999.90;;;37.80;47.60;;;;;;5031970;28;20029;-83
2021/06/24 12:40:20;;;;;;;1999.90;999.90;;;38.30;48.20;;;;;;5010238;28;20109;-82
2021/06/24 12:42:52;;;;;;;1999.90;999.90;;;39.00;48.00;;;;;;5014025;28;20481;-83
2021/06/24 12:45:21;;;;;;;1999.90;999.90;;;39.70;47.30;;;;;;5020295;28;20029;-84
2021/06/24 12:47:48;;;;;;;1999.90;999.90;;;40.40;46.90;;;;;;5015683;28;20029;-83
2021/06/24 12:50:23;;;;;;;1999.90;999.90;;;41.00;45.50;;;;;;5012024;28;20029;-83
2021/06/24 12:53:01;;;;;;;1999.90;999.90;;;41.50;44.80;;;;;;5016404;28;20699;-83
2021/06/24 12:55:48;;;;;;;1999.90;999.90;;;41.90;43.90;;;;;;5021992;28;20152;-83